createdAt,value
2018-08-31T00:00:01.099Z,18
2018-08-31T00:01:01.092Z,17
2018-08-31T00:04:01.117Z,18
2018-08-31T00:07:02.115Z,17
2018-08-31T00:09:01.132Z,14
2018-08-31T00:10:01.087Z,15
2018-08-31T00:11:01.088Z,14
2018-08-31T00:13:01.115Z,15
2018-08-31T00:15:01.090Z,16
2018-08-31T00:16:01.088Z,17
2018-08-31T00:17:01.093Z,16
2018-08-31T00:23:01.108Z,17
2018-08-31T00:24:01.113Z,16
2018-08-31T00:25:01.090Z,14
2018-08-31T00:27:01.091Z,17
2018-08-31T00:29:01.119Z,18
2018-08-31T00:30:01.087Z,19
2018-08-31T00:31:01.089Z,18
2018-08-31T00:32:01.090Z,16
2018-08-31T00:33:01.095Z,15
2018-08-31T00:34:01.123Z,14
2018-08-31T00:35:01.089Z,15
2018-08-31T00:36:01.091Z,14
2018-08-31T00:37:01.089Z,16
2018-08-31T00:39:01.122Z,18
2018-08-31T00:40:01.088Z,17
2018-08-31T00:41:01.090Z,16
2018-08-31T00:42:06.093Z,15
2018-08-31T00:44:01.125Z,14
2018-08-31T00:45:01.091Z,14
2018-08-31T00:46:01.089Z,16
2018-08-31T00:47:01.092Z,15
2018-08-31T00:48:01.092Z,17
2018-08-31T00:49:01.138Z,18
2018-08-31T00:50:01.090Z,19
2018-08-31T00:54:01.130Z,18
2018-08-31T00:55:01.092Z,16
2018-08-31T00:56:01.092Z,17
2018-08-31T00:58:01.098Z,16
2018-08-31T01:00:01.093Z,17
2018-08-31T01:03:01.088Z,18
2018-08-31T01:08:01.122Z,16
2018-08-31T01:09:01.097Z,15
2018-08-31T01:10:01.095Z,14
2018-08-31T01:11:01.092Z,15
2018-08-31T01:14:01.104Z,17
2018-08-31T01:15:01.078Z,18
2018-08-31T01:16:01.078Z,17
2018-08-31T01:17:01.105Z,15
2018-08-31T01:18:01.076Z,17
2018-08-31T01:19:01.079Z,16
2018-08-31T01:20:01.078Z,15
2018-08-31T01:22:01.103Z,16
2018-08-31T01:23:01.111Z,12
2018-08-31T01:24:01.077Z,13
2018-08-31T01:25:01.078Z,14
2018-08-31T01:26:01.078Z,15
2018-08-31T01:28:02.105Z,16
2018-08-31T01:29:01.120Z,14
2018-08-31T01:30:01.079Z,13
2018-08-31T01:31:01.082Z,14
2018-08-31T01:32:01.077Z,12
2018-08-31T01:33:01.082Z,14
2018-08-31T01:35:01.097Z,17
2018-08-31T01:36:01.080Z,16
2018-08-31T01:40:02.107Z,13
2018-08-31T01:41:01.081Z,14
2018-08-31T01:42:01.080Z,15
2018-08-31T01:43:01.082Z,16
2018-08-31T01:45:01.087Z,18
2018-08-31T01:46:01.083Z,19
2018-08-31T01:47:01.083Z,20
2018-08-31T01:48:01.082Z,21
2018-08-31T01:49:01.106Z,22
2018-08-31T01:51:01.082Z,21
2018-08-31T01:52:01.082Z,20
2018-08-31T01:53:06.084Z,18
2018-08-31T01:54:01.085Z,17
2018-08-31T01:56:01.083Z,16
2018-08-31T01:57:01.084Z,17
2018-08-31T01:58:01.123Z,18
2018-08-31T01:59:01.134Z,16
2018-08-31T02:00:01.092Z,16
2018-08-31T02:01:01.085Z,17
2018-08-31T02:02:01.085Z,16
2018-08-31T02:04:01.132Z,17
2018-08-31T02:05:11.088Z,16
2018-08-31T02:06:01.081Z,15
2018-08-31T02:08:01.116Z,16
2018-08-31T02:09:01.083Z,14
2018-08-31T02:10:01.082Z,16
2018-08-31T02:15:01.089Z,15
2018-08-31T02:18:02.136Z,17
2018-08-31T02:19:01.083Z,18
2018-08-31T02:20:01.085Z,19
2018-08-31T02:22:01.085Z,18
2018-08-31T02:23:02.139Z,17
2018-08-31T02:26:01.087Z,18
2018-08-31T02:28:01.088Z,16
2018-08-31T02:29:01.087Z,15
2018-08-31T02:30:01.090Z,16
2018-08-31T02:32:01.088Z,15
2018-08-31T02:33:01.087Z,16
2018-08-31T02:35:01.122Z,14
2018-08-31T02:36:01.089Z,13
2018-08-31T02:39:01.093Z,14
2018-08-31T02:42:01.093Z,15
2018-08-31T02:43:06.098Z,16
2018-08-31T02:44:01.092Z,17
2018-08-31T02:45:01.129Z,16
2018-08-31T02:46:01.095Z,17
2018-08-31T02:47:06.098Z,16
2018-08-31T02:48:01.093Z,15
2018-08-31T02:50:01.079Z,13
2018-08-31T02:51:01.128Z,14
2018-08-31T02:52:01.079Z,13
2018-08-31T02:54:01.081Z,15
2018-08-31T02:56:01.084Z,17
2018-08-31T02:57:01.110Z,16
2018-08-31T02:58:01.084Z,17
2018-08-31T03:00:01.088Z,17
2018-08-31T03:01:01.085Z,16
2018-08-31T03:02:01.113Z,17
2018-08-31T03:03:01.087Z,16
2018-08-31T03:05:01.085Z,17
2018-08-31T03:08:01.123Z,18
2018-08-31T03:09:01.089Z,19
2018-08-31T03:10:01.091Z,18
2018-08-31T03:11:01.083Z,19
2018-08-31T03:13:01.109Z,17
2018-08-31T03:14:01.083Z,16
2018-08-31T03:15:01.086Z,16
2018-08-31T03:16:01.083Z,14
2018-08-31T03:17:01.111Z,15
2018-08-31T03:18:01.086Z,16
2018-08-31T03:19:01.082Z,17
2018-08-31T03:21:01.082Z,18
2018-08-31T03:22:01.131Z,20
2018-08-31T03:23:06.085Z,21
2018-08-31T03:24:01.084Z,20
2018-08-31T03:27:06.108Z,17
2018-08-31T03:28:01.088Z,14
2018-08-31T03:29:06.091Z,15
2018-08-31T03:30:01.083Z,15
2018-08-31T03:31:01.082Z,14
2018-08-31T03:33:06.148Z,16
2018-08-31T03:35:01.084Z,15
2018-08-31T03:36:01.095Z,16
2018-08-31T03:37:01.274Z,18
2018-08-31T03:38:06.149Z,16
2018-08-31T03:39:01.090Z,15
2018-08-31T03:42:01.083Z,14
2018-08-31T03:43:01.239Z,15
2018-08-31T03:45:01.086Z,15
2018-08-31T03:47:01.084Z,14
2018-08-31T03:48:06.090Z,13
2018-08-31T03:49:01.113Z,15
2018-08-31T03:50:01.083Z,17
2018-08-31T03:52:01.097Z,16
2018-08-31T03:53:01.088Z,17
2018-08-31T03:54:01.117Z,16
2018-08-31T03:55:01.090Z,14
2018-08-31T03:56:02.111Z,15
2018-08-31T03:58:01.088Z,14
2018-08-31T04:00:01.088Z,16
2018-08-31T04:02:01.086Z,17
2018-08-31T04:03:01.100Z,18
2018-08-31T04:05:01.096Z,17
2018-08-31T04:07:01.152Z,18
2018-08-31T04:11:01.093Z,16
2018-08-31T04:12:01.093Z,15
2018-08-31T04:14:01.117Z,14
2018-08-31T04:15:01.101Z,14
2018-08-31T04:17:01.154Z,17
2018-08-31T04:18:01.092Z,18
2018-08-31T04:19:06.178Z,20
2018-08-31T04:20:01.092Z,19
2018-08-31T04:22:01.089Z,18
2018-08-31T04:23:01.090Z,16
2018-08-31T04:24:06.091Z,15
2018-08-31T04:25:01.090Z,17
2018-08-31T04:26:06.091Z,18
2018-08-31T04:27:01.089Z,19
2018-08-31T04:28:01.158Z,18
2018-08-31T04:29:07.116Z,19
2018-08-31T04:30:01.093Z,19
2018-08-31T04:31:01.096Z,17
2018-08-31T04:33:01.155Z,18
2018-08-31T04:35:01.088Z,16
2018-08-31T04:36:01.149Z,19
2018-08-31T04:37:01.089Z,18
2018-08-31T04:38:01.088Z,17
2018-08-31T04:41:01.148Z,16
2018-08-31T04:44:01.091Z,15
2018-08-31T04:45:01.089Z,16
2018-08-31T04:46:01.087Z,15
2018-08-31T04:49:01.085Z,17
2018-08-31T04:51:01.154Z,16
2018-08-31T04:52:01.086Z,17
2018-08-31T04:53:01.088Z,16
2018-08-31T04:55:01.085Z,18
2018-08-31T04:56:01.092Z,20
2018-08-31T04:57:01.087Z,19
2018-08-31T04:59:01.238Z,18
2018-08-31T05:00:01.087Z,16
2018-08-31T05:02:01.091Z,17
2018-08-31T05:03:06.085Z,18
2018-08-31T05:05:01.086Z,17
2018-08-31T05:07:01.087Z,15
2018-08-31T05:08:01.086Z,14
2018-08-31T05:09:01.094Z,15
2018-08-31T05:10:01.089Z,16
2018-08-31T05:11:01.121Z,18
2018-08-31T05:12:01.090Z,19
2018-08-31T05:13:01.089Z,20
2018-08-31T05:15:01.090Z,20
2018-08-31T05:16:01.105Z,17
2018-08-31T05:19:01.086Z,16
2018-08-31T05:20:01.088Z,15
2018-08-31T05:21:01.084Z,17
2018-08-31T05:22:01.088Z,18
2018-08-31T05:24:01.085Z,17
2018-08-31T05:27:06.098Z,16
2018-08-31T05:28:01.088Z,15
2018-08-31T05:29:01.092Z,18
2018-08-31T05:30:01.091Z,17
2018-08-31T05:31:01.089Z,15
2018-08-31T05:33:01.086Z,13
2018-08-31T05:34:01.099Z,12
2018-08-31T05:36:01.093Z,14
2018-08-31T05:38:07.119Z,15
2018-08-31T05:39:01.088Z,16
2018-08-31T05:40:01.088Z,18
2018-08-31T05:41:01.135Z,17
2018-08-31T05:42:01.090Z,18
2018-08-31T05:43:01.097Z,17
2018-08-31T05:45:01.090Z,16
2018-08-31T05:48:06.113Z,14
2018-08-31T05:50:01.091Z,16
2018-08-31T05:51:01.091Z,17
2018-08-31T05:52:01.125Z,16
2018-08-31T05:53:01.096Z,18
2018-08-31T05:54:01.096Z,16
2018-08-31T05:55:01.097Z,14
2018-08-31T05:56:01.093Z,13
2018-08-31T05:57:06.100Z,14
2018-08-31T05:58:01.098Z,15
2018-08-31T05:59:01.100Z,16
2018-08-31T06:00:01.094Z,16
2018-08-31T06:01:02.118Z,17
2018-08-31T06:02:06.157Z,18
2018-08-31T06:03:01.100Z,17
2018-08-31T06:04:01.095Z,18
2018-08-31T06:07:01.097Z,15
2018-08-31T06:08:01.095Z,17
2018-08-31T06:09:01.094Z,16
2018-08-31T06:11:01.099Z,17
2018-08-31T06:12:01.216Z,18
2018-08-31T06:14:01.092Z,19
2018-08-31T06:15:01.100Z,20
2018-08-31T06:16:06.093Z,19
2018-08-31T06:17:01.142Z,18
2018-08-31T06:18:01.099Z,17
2018-08-31T06:19:01.093Z,16
2018-08-31T06:20:01.098Z,14
2018-08-31T06:22:01.093Z,15
2018-08-31T06:23:01.090Z,14
2018-08-31T06:24:01.092Z,16
2018-08-31T06:25:01.095Z,17
2018-08-31T06:27:01.128Z,20
2018-08-31T06:28:01.089Z,21
2018-08-31T06:29:06.097Z,18
2018-08-31T06:30:01.094Z,17
2018-08-31T06:32:01.090Z,15
2018-08-31T06:33:01.092Z,14
2018-08-31T06:34:01.195Z,15
2018-08-31T06:35:01.091Z,18
2018-08-31T06:37:01.155Z,20
2018-08-31T06:38:01.090Z,21
2018-08-31T06:39:01.095Z,22
2018-08-31T06:40:01.097Z,19
2018-08-31T06:41:01.090Z,20
2018-08-31T06:42:01.098Z,19
2018-08-31T06:45:01.093Z,20
2018-08-31T06:46:01.113Z,17
2018-08-31T06:47:01.060Z,18
2018-08-31T06:48:01.093Z,17
2018-08-31T06:50:01.090Z,16
2018-08-31T06:51:01.091Z,18
2018-08-31T06:52:01.091Z,17
2018-08-31T06:53:06.157Z,16
2018-08-31T06:57:01.157Z,17
2018-08-31T06:58:01.096Z,16
2018-08-31T07:00:01.080Z,17
2018-08-31T07:01:01.104Z,18
2018-08-31T07:02:01.078Z,19
2018-08-31T07:03:01.076Z,17
2018-08-31T07:04:01.141Z,18
2018-08-31T07:07:01.076Z,17
2018-08-31T07:08:01.076Z,18
2018-08-31T07:09:01.077Z,17
2018-08-31T07:10:01.075Z,16
2018-08-31T07:11:01.076Z,18
2018-08-31T07:12:01.079Z,19
2018-08-31T07:14:01.078Z,20
2018-08-31T07:15:01.080Z,20
2018-08-31T07:16:01.077Z,17
2018-08-31T07:17:01.078Z,16
2018-08-31T07:18:01.078Z,15
2018-08-31T07:19:01.080Z,14
2018-08-31T07:20:01.081Z,15
2018-08-31T07:21:01.082Z,16
2018-08-31T07:22:01.083Z,17
2018-08-31T07:23:01.079Z,18
2018-08-31T07:28:06.088Z,17
2018-08-31T07:29:01.080Z,20
2018-08-31T07:30:06.084Z,19
2018-08-31T07:31:01.085Z,18
2018-08-31T07:32:01.191Z,19
2018-08-31T07:33:01.086Z,18
2018-08-31T07:34:01.079Z,17
2018-08-31T07:35:01.079Z,16
2018-08-31T07:36:01.142Z,17
2018-08-31T07:37:01.079Z,16
2018-08-31T07:39:01.080Z,15
2018-08-31T07:41:01.082Z,17
2018-08-31T07:42:01.080Z,15
2018-08-31T07:43:01.080Z,17
2018-08-31T07:45:06.149Z,17
2018-08-31T07:46:06.084Z,18
2018-08-31T07:48:01.142Z,19
2018-08-31T07:49:01.078Z,18
2018-08-31T07:50:01.078Z,17
2018-08-31T07:51:01.079Z,14
2018-08-31T07:53:01.078Z,13
2018-08-31T07:54:01.294Z,16
2018-08-31T07:55:06.085Z,18
2018-08-31T07:57:01.081Z,20
2018-08-31T08:00:01.080Z,17
2018-08-31T08:01:01.086Z,18
2018-08-31T08:02:01.088Z,17
2018-08-31T08:03:02.111Z,15
2018-08-31T08:04:01.085Z,13
2018-08-31T08:05:01.079Z,14
2018-08-31T08:06:01.080Z,15
2018-08-31T08:07:01.083Z,13
2018-08-31T08:08:01.081Z,14
2018-08-31T08:11:01.082Z,15
2018-08-31T08:13:02.167Z,17
2018-08-31T08:15:01.084Z,16
2018-08-31T08:20:06.134Z,17
2018-08-31T08:21:01.081Z,18
2018-08-31T08:23:06.086Z,17
2018-08-31T08:24:01.081Z,16
2018-08-31T08:25:01.117Z,18
2018-08-31T08:26:01.082Z,17
2018-08-31T08:27:01.086Z,18
2018-08-31T08:28:01.086Z,19
2018-08-31T08:30:01.090Z,17
2018-08-31T08:32:01.083Z,16
2018-08-31T08:34:01.082Z,17
2018-08-31T08:36:06.179Z,16
2018-08-31T08:37:01.085Z,18
2018-08-31T08:38:01.147Z,16
2018-08-31T08:39:01.083Z,15
2018-08-31T08:40:01.093Z,14
2018-08-31T08:41:01.084Z,16
2018-08-31T08:42:01.121Z,14
2018-08-31T08:43:01.149Z,15
2018-08-31T08:44:01.091Z,16
2018-08-31T08:45:06.086Z,18
2018-08-31T08:46:01.085Z,17
2018-08-31T08:47:01.112Z,18
2018-08-31T08:53:01.129Z,19
2018-08-31T08:54:06.089Z,18
2018-08-31T08:56:01.088Z,19
2018-08-31T08:58:01.120Z,18
2018-08-31T09:00:01.093Z,18
2018-08-31T09:02:01.124Z,19
2018-08-31T09:04:01.081Z,18
2018-08-31T09:06:01.085Z,19
2018-08-31T09:08:01.110Z,18
2018-08-31T09:11:01.089Z,16
2018-08-31T09:13:01.108Z,14
2018-08-31T09:14:01.084Z,13
2018-08-31T09:15:01.081Z,13
2018-08-31T09:16:01.082Z,14
2018-08-31T09:17:01.120Z,15
2018-08-31T09:18:01.081Z,16
2018-08-31T09:21:02.109Z,17
2018-08-31T09:23:01.109Z,18
2018-08-31T09:25:01.084Z,19
2018-08-31T09:28:01.107Z,17
2018-08-31T09:29:01.081Z,18
2018-08-31T09:30:01.086Z,17
2018-08-31T09:34:01.113Z,16
2018-08-31T09:35:01.087Z,15
2018-08-31T09:36:01.084Z,13
2018-08-31T09:38:06.084Z,15
2018-08-31T09:41:01.082Z,16
2018-08-31T09:42:06.084Z,18
2018-08-31T09:43:01.082Z,17
2018-08-31T09:44:01.195Z,18
2018-08-31T09:45:01.082Z,17
2018-08-31T09:47:06.092Z,15
2018-08-31T09:48:01.051Z,16
2018-08-31T09:51:01.087Z,18
2018-08-31T09:52:01.083Z,21
2018-08-31T09:54:01.089Z,22
2018-08-31T09:56:01.084Z,20
2018-08-31T09:57:01.084Z,19
2018-08-31T09:58:06.092Z,17
2018-08-31T09:59:01.086Z,15
2018-08-31T10:00:06.096Z,15
2018-08-31T10:02:01.092Z,13
2018-08-31T10:03:06.119Z,15
2018-08-31T10:06:01.101Z,16
2018-08-31T10:07:01.091Z,17
2018-08-31T10:08:06.093Z,15
2018-08-31T10:09:01.088Z,16
2018-08-31T10:10:01.124Z,15
2018-08-31T10:12:02.116Z,17
2018-08-31T10:14:01.105Z,18
2018-08-31T10:15:01.127Z,19
2018-08-31T10:16:01.089Z,17
2018-08-31T10:17:01.091Z,15
2018-08-31T10:19:01.091Z,16
2018-08-31T10:20:01.131Z,15
2018-08-31T10:21:01.100Z,16
2018-08-31T10:23:01.093Z,15
2018-08-31T10:24:01.091Z,14
2018-08-31T10:26:01.091Z,15
2018-08-31T10:27:01.090Z,14
2018-08-31T10:28:02.116Z,15
2018-08-31T10:30:01.146Z,15
2018-08-31T10:31:02.118Z,13
2018-08-31T10:33:01.091Z,14
2018-08-31T10:36:01.094Z,15
2018-08-31T10:37:01.091Z,16
2018-08-31T10:38:01.091Z,15
2018-08-31T10:39:01.158Z,17
2018-08-31T10:40:01.128Z,16
2018-08-31T10:41:01.154Z,17
2018-08-31T10:42:01.092Z,16
2018-08-31T10:43:01.093Z,15
2018-08-31T10:44:01.090Z,16
2018-08-31T10:45:01.136Z,17
2018-08-31T10:46:01.092Z,15
2018-08-31T10:47:01.090Z,17
2018-08-31T10:48:01.089Z,16
2018-08-31T10:49:01.089Z,13
2018-08-31T10:50:01.100Z,16
2018-08-31T10:51:01.089Z,17
2018-08-31T10:52:01.089Z,16
2018-08-31T10:53:02.114Z,18
2018-08-31T10:54:01.095Z,20
2018-08-31T10:55:01.098Z,18
2018-08-31T10:57:01.092Z,20
2018-08-31T10:59:01.118Z,18
2018-08-31T11:00:01.091Z,18
2018-08-31T11:01:01.095Z,17
2018-08-31T11:02:01.090Z,15
2018-08-31T11:03:01.089Z,13
2018-08-31T11:04:01.120Z,15
2018-08-31T11:05:01.091Z,13
2018-08-31T11:06:01.093Z,15
2018-08-31T11:07:01.092Z,16
2018-08-31T11:08:01.091Z,17
2018-08-31T11:09:01.123Z,16
2018-08-31T11:10:01.092Z,17
2018-08-31T11:11:02.115Z,16
2018-08-31T11:12:01.092Z,15
2018-08-31T11:13:01.223Z,13
2018-08-31T11:14:01.268Z,15
2018-08-31T11:15:01.129Z,14
2018-08-31T11:16:01.093Z,15
2018-08-31T11:17:01.097Z,16
2018-08-31T11:18:01.104Z,14
2018-08-31T11:19:01.145Z,15
2018-08-31T11:20:06.097Z,16
2018-08-31T11:21:01.092Z,17
2018-08-31T11:23:01.067Z,19
2018-08-31T11:24:01.254Z,18
2018-08-31T11:26:01.090Z,16
2018-08-31T11:27:01.095Z,17
2018-08-31T11:28:01.092Z,18
2018-08-31T11:30:01.093Z,19
2018-08-31T11:33:01.093Z,17
2018-08-31T11:34:01.221Z,15
2018-08-31T11:35:01.093Z,14
2018-08-31T11:37:01.156Z,13
2018-08-31T11:39:01.124Z,15
2018-08-31T11:41:01.096Z,16
2018-08-31T11:43:01.091Z,14
2018-08-31T11:44:01.123Z,15
2018-08-31T11:45:01.092Z,15
2018-08-31T11:47:01.092Z,16
2018-08-31T11:48:01.093Z,17
2018-08-31T11:49:01.118Z,16
2018-08-31T11:51:01.093Z,15
2018-08-31T11:52:01.094Z,13
2018-08-31T11:53:01.127Z,16
2018-08-31T11:54:01.100Z,17
2018-08-31T11:55:01.060Z,16
2018-08-31T11:56:01.093Z,17
2018-08-31T11:57:01.099Z,18
2018-08-31T11:59:02.149Z,17
2018-08-31T12:00:01.158Z,18
2018-08-31T12:01:06.159Z,20
2018-08-31T12:02:01.107Z,21
2018-08-31T12:03:01.097Z,20
2018-08-31T12:06:01.090Z,19
2018-08-31T12:07:01.094Z,18
2018-08-31T12:08:01.092Z,19
2018-08-31T12:09:01.095Z,18
2018-08-31T12:10:01.091Z,19
2018-08-31T12:12:01.099Z,20
2018-08-31T12:13:01.092Z,19
2018-08-31T12:14:01.098Z,20
2018-08-31T12:15:06.103Z,20
2018-08-31T12:16:01.093Z,17
2018-08-31T12:17:01.094Z,18
2018-08-31T12:19:01.127Z,17
2018-08-31T12:21:01.100Z,18
2018-08-31T12:22:01.093Z,21
2018-08-31T12:23:01.100Z,20
2018-08-31T12:24:01.130Z,21
2018-08-31T12:25:01.156Z,20
2018-08-31T12:26:01.095Z,19
2018-08-31T12:28:01.080Z,16
2018-08-31T12:29:01.145Z,15
2018-08-31T12:30:01.084Z,16
2018-08-31T12:31:01.078Z,17
2018-08-31T12:32:01.078Z,18
2018-08-31T12:35:01.142Z,16
2018-08-31T12:36:01.178Z,15
2018-08-31T12:37:01.143Z,14
2018-08-31T12:38:01.079Z,13
2018-08-31T12:39:01.077Z,14
2018-08-31T12:40:01.080Z,15
2018-08-31T12:41:01.115Z,16
2018-08-31T12:43:01.049Z,17
2018-08-31T12:44:01.083Z,15
2018-08-31T12:45:01.081Z,16
2018-08-31T12:47:01.106Z,15
2018-08-31T12:51:01.081Z,14
2018-08-31T12:53:01.112Z,15
2018-08-31T12:54:01.084Z,16
2018-08-31T12:55:01.082Z,17
2018-08-31T12:57:01.112Z,19
2018-08-31T12:58:01.079Z,17
2018-08-31T13:00:01.148Z,17
2018-08-31T13:01:01.084Z,18
2018-08-31T13:02:01.115Z,17
2018-08-31T13:04:01.080Z,19
2018-08-31T13:06:02.104Z,17
2018-08-31T13:08:01.107Z,16
2018-08-31T13:09:01.081Z,15
2018-08-31T13:11:01.121Z,16
2018-08-31T13:12:01.114Z,18
2018-08-31T13:13:01.149Z,21
2018-08-31T13:15:01.085Z,22
2018-08-31T13:16:01.081Z,21
2018-08-31T13:18:01.146Z,19
2018-08-31T13:20:01.135Z,18
2018-08-31T13:22:01.084Z,16
2018-08-31T13:24:01.084Z,17
2018-08-31T13:26:01.084Z,15
2018-08-31T13:28:01.150Z,17
2018-08-31T13:29:01.152Z,18
2018-08-31T13:30:01.087Z,17
2018-08-31T13:31:01.150Z,19
2018-08-31T13:33:01.084Z,16
2018-08-31T13:34:01.083Z,15
2018-08-31T13:35:01.055Z,16
2018-08-31T13:36:01.090Z,14
2018-08-31T13:37:01.086Z,15
2018-08-31T13:38:01.180Z,17
2018-08-31T13:39:01.085Z,16
2018-08-31T13:40:01.085Z,14
2018-08-31T13:41:01.086Z,15
2018-08-31T13:42:01.085Z,16
2018-08-31T13:44:01.149Z,17
2018-08-31T13:45:01.092Z,17
2018-08-31T13:46:01.087Z,16
2018-08-31T13:47:01.090Z,14
2018-08-31T13:48:01.095Z,13
2018-08-31T13:49:01.150Z,16
2018-08-31T13:51:01.092Z,17
2018-08-31T13:52:01.155Z,19
2018-08-31T13:53:01.088Z,20
2018-08-31T13:54:06.092Z,19
2018-08-31T13:55:01.088Z,20
2018-08-31T13:56:01.088Z,21
2018-08-31T13:57:01.087Z,18
2018-08-31T13:58:06.090Z,17
2018-08-31T13:59:01.087Z,18
2018-08-31T14:00:01.089Z,15
2018-08-31T14:02:01.088Z,16
2018-08-31T14:03:01.088Z,17
2018-08-31T14:04:01.153Z,15
2018-08-31T14:05:01.092Z,16
2018-08-31T14:06:06.096Z,15
2018-08-31T14:07:01.090Z,14
2018-08-31T14:08:01.089Z,15
2018-08-31T14:10:01.091Z,14
2018-08-31T14:11:01.093Z,15
2018-08-31T14:13:01.091Z,14
2018-08-31T14:15:01.092Z,13
2018-08-31T14:16:01.092Z,15
2018-08-31T14:17:01.094Z,17
2018-08-31T14:19:01.093Z,18
2018-08-31T14:20:01.091Z,19
2018-08-31T14:21:06.159Z,17
2018-08-31T14:22:01.090Z,16
2018-08-31T14:24:01.095Z,19
2018-08-31T14:25:01.090Z,17
2018-08-31T14:26:01.089Z,16
2018-08-31T14:29:01.092Z,14
2018-08-31T14:30:01.182Z,13
2018-08-31T14:31:01.090Z,15
2018-08-31T14:32:01.100Z,14
2018-08-31T14:33:01.095Z,16
2018-08-31T14:34:01.091Z,15
2018-08-31T14:35:01.094Z,17
2018-08-31T14:41:01.087Z,18
2018-08-31T14:43:01.096Z,17
2018-08-31T14:44:01.145Z,16
2018-08-31T14:45:01.106Z,15
2018-08-31T14:46:02.123Z,13
2018-08-31T14:49:02.124Z,14
2018-08-31T14:50:02.250Z,13
2018-08-31T14:54:01.122Z,15
2018-08-31T14:58:02.139Z,16
2018-08-31T14:59:01.088Z,17
2018-08-31T15:00:01.103Z,18
2018-08-31T15:01:01.115Z,16
2018-08-31T15:02:01.088Z,17
2018-08-31T15:03:01.089Z,16
2018-08-31T15:04:01.159Z,15
2018-08-31T15:05:01.087Z,16
2018-08-31T15:06:01.291Z,17
2018-08-31T15:07:01.088Z,16
2018-08-31T15:09:01.090Z,15
2018-08-31T15:12:01.121Z,17
2018-08-31T15:13:01.107Z,18
2018-08-31T15:15:01.098Z,18
2018-08-31T15:16:01.117Z,19
2018-08-31T15:17:02.118Z,16
2018-08-31T15:19:01.089Z,18
2018-08-31T15:20:01.095Z,17
2018-08-31T15:21:01.119Z,15
2018-08-31T15:22:01.092Z,17
2018-08-31T15:24:01.093Z,15
2018-08-31T15:26:01.124Z,17
2018-08-31T15:29:01.076Z,18
2018-08-31T15:30:01.077Z,18
2018-08-31T15:31:01.107Z,20
2018-08-31T15:32:01.077Z,17
2018-08-31T15:36:01.111Z,18
2018-08-31T15:37:01.077Z,21
2018-08-31T15:38:06.082Z,19
2018-08-31T15:39:01.081Z,20
2018-08-31T15:40:06.078Z,22
2018-08-31T15:41:01.078Z,20
2018-08-31T15:42:01.153Z,18
2018-08-31T15:43:01.083Z,19
2018-08-31T15:44:01.078Z,18
2018-08-31T15:45:01.078Z,15
2018-08-31T15:46:01.078Z,14
2018-08-31T15:47:01.106Z,15
2018-08-31T15:49:01.109Z,14
2018-08-31T15:50:01.084Z,15
2018-08-31T15:52:01.081Z,17
2018-08-31T15:53:01.081Z,16
2018-08-31T15:54:01.114Z,17
2018-08-31T15:55:01.080Z,18
2018-08-31T15:57:02.132Z,17
2018-08-31T15:58:01.079Z,18
2018-08-31T16:00:01.088Z,17
2018-08-31T16:04:01.108Z,16
2018-08-31T16:05:01.079Z,17
2018-08-31T16:06:01.084Z,18
2018-08-31T16:08:02.133Z,19
2018-08-31T16:09:01.081Z,21
2018-08-31T16:10:01.080Z,20
2018-08-31T16:11:06.082Z,22
2018-08-31T16:12:01.111Z,23
2018-08-31T16:13:01.081Z,21
2018-08-31T16:14:01.080Z,19
2018-08-31T16:15:01.082Z,19
2018-08-31T16:16:01.081Z,15
2018-08-31T16:17:01.121Z,16
2018-08-31T16:18:06.089Z,17
2018-08-31T16:19:01.139Z,18
2018-08-31T16:21:01.225Z,19
2018-08-31T16:22:01.149Z,18
2018-08-31T16:23:01.082Z,17
2018-08-31T16:25:01.110Z,18
2018-08-31T16:26:01.082Z,15
2018-08-31T16:27:01.119Z,16
2018-08-31T16:29:01.137Z,15
2018-08-31T16:30:01.149Z,14
2018-08-31T16:31:01.081Z,16
2018-08-31T16:32:06.087Z,17
2018-08-31T16:34:01.084Z,19
2018-08-31T16:35:01.088Z,20
2018-08-31T16:36:01.085Z,19
2018-08-31T16:37:06.084Z,17
2018-08-31T16:38:01.058Z,16
2018-08-31T16:39:01.270Z,15
2018-08-31T16:40:01.170Z,17
2018-08-31T16:42:06.102Z,19
2018-08-31T16:43:01.087Z,20
2018-08-31T16:45:01.084Z,18
2018-08-31T16:46:01.089Z,17
2018-08-31T16:47:06.130Z,16
2018-08-31T16:49:01.087Z,15
2018-08-31T16:50:01.086Z,16
2018-08-31T16:51:01.093Z,17
2018-08-31T16:52:06.105Z,15
2018-08-31T16:56:01.084Z,14
2018-08-31T16:57:06.087Z,17
2018-08-31T16:59:01.084Z,16
2018-08-31T17:00:01.144Z,16
2018-08-31T17:01:01.088Z,19
2018-08-31T17:02:01.138Z,17
2018-08-31T17:03:01.082Z,18
2018-08-31T17:04:01.086Z,17
2018-08-31T17:06:01.082Z,14
2018-08-31T17:07:01.084Z,15
2018-08-31T17:08:01.123Z,14
2018-08-31T17:10:01.087Z,15
2018-08-31T17:13:01.083Z,16
2018-08-31T17:14:01.182Z,17
2018-08-31T17:15:01.084Z,16
2018-08-31T17:16:01.085Z,17
2018-08-31T17:18:01.087Z,16
2018-08-31T17:20:01.088Z,18
2018-08-31T17:23:01.090Z,19
2018-08-31T17:24:01.088Z,18
2018-08-31T17:25:01.085Z,17
2018-08-31T17:26:01.091Z,16
2018-08-31T17:27:06.090Z,17
2018-08-31T17:28:01.093Z,18
2018-08-31T17:30:01.089Z,16
2018-08-31T17:32:06.102Z,15
2018-08-31T17:33:01.093Z,13
2018-08-31T17:35:01.091Z,14
2018-08-31T17:41:01.098Z,15
2018-08-31T17:43:06.093Z,17
2018-08-31T17:45:01.097Z,15
2018-08-31T17:46:01.093Z,16
2018-08-31T17:48:06.092Z,18
2018-08-31T17:50:01.090Z,17
2018-08-31T17:53:01.090Z,13
2018-08-31T17:54:01.093Z,14
2018-08-31T17:55:01.091Z,16
2018-08-31T17:57:01.094Z,17
2018-08-31T17:58:01.159Z,20
2018-08-31T18:00:01.096Z,19
2018-08-31T18:01:01.099Z,17
2018-08-31T18:02:01.096Z,18
2018-08-31T18:03:01.103Z,17
2018-08-31T18:05:01.107Z,19
2018-08-31T18:06:01.093Z,20
2018-08-31T18:08:02.125Z,18
2018-08-31T18:10:01.132Z,19
2018-08-31T18:11:01.095Z,18
2018-08-31T18:12:01.096Z,17
2018-08-31T18:15:01.106Z,15
2018-08-31T18:17:01.114Z,14
2018-08-31T18:18:01.099Z,16
2018-08-31T18:23:01.080Z,18
2018-08-31T18:24:01.079Z,17
2018-08-31T18:25:01.089Z,16
2018-08-31T18:27:01.081Z,15
2018-08-31T18:30:01.077Z,14
2018-08-31T18:31:01.076Z,15
2018-08-31T18:32:02.107Z,14
2018-08-31T18:34:01.077Z,13
2018-08-31T18:35:01.077Z,14
2018-08-31T18:36:02.106Z,15
2018-08-31T18:37:01.146Z,16
2018-08-31T18:38:01.080Z,18
2018-08-31T18:39:01.077Z,16
2018-08-31T18:41:01.098Z,17
2018-08-31T18:42:01.080Z,16
2018-08-31T18:43:01.086Z,14
2018-08-31T18:44:01.085Z,16
2018-08-31T18:45:01.084Z,15
2018-08-31T18:46:01.146Z,14
2018-08-31T18:47:01.085Z,12
2018-08-31T18:49:01.080Z,10
2018-08-31T18:50:01.170Z,13
2018-08-31T18:51:01.080Z,15
2018-08-31T18:52:01.077Z,18
2018-08-31T18:53:01.079Z,19
2018-08-31T18:55:01.088Z,18
2018-08-31T18:56:01.129Z,17
2018-08-31T18:57:01.085Z,15
2018-08-31T18:59:01.147Z,17
2018-08-31T19:00:01.091Z,15
2018-08-31T19:01:01.107Z,14
2018-08-31T19:03:01.085Z,15
2018-08-31T19:04:01.082Z,16
2018-08-31T19:05:01.082Z,18
2018-08-31T19:06:01.111Z,19
2018-08-31T19:08:01.081Z,18
2018-08-31T19:09:01.083Z,17
2018-08-31T19:10:01.082Z,16
2018-08-31T19:12:01.079Z,17
2018-08-31T19:13:01.250Z,18
2018-08-31T19:15:02.119Z,17
2018-08-31T19:16:01.104Z,16
2018-08-31T19:17:01.083Z,15
2018-08-31T19:21:01.109Z,16
2018-08-31T19:23:01.082Z,17
2018-08-31T19:24:01.079Z,16
2018-08-31T19:26:01.132Z,15
2018-08-31T19:29:03.065Z,17
2018-08-31T19:30:01.079Z,17
2018-08-31T19:31:01.110Z,19
2018-08-31T19:33:01.078Z,17
2018-08-31T19:35:01.079Z,18
2018-08-31T19:36:01.116Z,15
2018-08-31T19:39:02.113Z,13
2018-08-31T19:40:01.082Z,12
2018-08-31T19:41:01.137Z,13
2018-08-31T19:42:01.113Z,12
2018-08-31T19:43:01.081Z,11
2018-08-31T19:44:01.079Z,14
2018-08-31T19:45:01.080Z,16
2018-08-31T19:46:01.085Z,17
2018-08-31T19:47:01.119Z,18
2018-08-31T19:48:01.080Z,19
2018-08-31T19:49:01.082Z,18
2018-08-31T19:55:01.082Z,17
2018-08-31T19:58:04.092Z,16
2018-08-31T19:59:01.080Z,14
2018-08-31T20:00:01.087Z,14
2018-08-31T20:01:01.083Z,15
2018-08-31T20:02:01.089Z,14
2018-08-31T20:03:01.118Z,15
2018-08-31T20:04:01.080Z,18
2018-08-31T20:05:01.085Z,16
2018-08-31T20:06:01.083Z,17
2018-08-31T20:07:01.081Z,18
2018-08-31T20:09:06.081Z,17
2018-08-31T20:10:01.081Z,19
2018-08-31T20:11:01.082Z,18
2018-08-31T20:12:01.081Z,16
2018-08-31T20:13:01.112Z,17
2018-08-31T20:14:01.090Z,16
2018-08-31T20:15:01.106Z,15
2018-08-31T20:16:01.109Z,14